createdAt,value
2023-02-16T00:01:22.625Z,53.90
2023-02-16T00:03:53.204Z,52.90
2023-02-16T00:06:22.280Z,55.90
2023-02-16T00:08:53.097Z,54.90
2023-02-16T00:11:54.716Z,46.10
2023-02-16T00:14:24.633Z,49.00
2023-02-16T00:16:54.214Z,51.30
2023-02-16T00:19:31.499Z,52.50
2023-02-16T00:22:01.218Z,50.60
2023-02-16T00:24:30.924Z,48.70
2023-02-16T00:27:00.911Z,48.00
2023-02-16T00:29:35.309Z,49.20
2023-02-16T00:32:06.426Z,51.00
2023-02-16T00:34:40.747Z,51.40
2023-02-16T00:37:14.324Z,49.50
2023-02-16T00:39:44.343Z,50.00
2023-02-16T00:42:22.081Z,44.90
2023-02-16T00:44:56.906Z,46.70
2023-02-16T00:47:37.529Z,45.00
2023-02-16T00:50:28.196Z,44.90
2023-02-16T00:52:59.782Z,48.40
2023-02-16T00:55:31.159Z,47.10
2023-02-16T00:58:12.484Z,51.20
2023-02-16T01:00:44.915Z,47.40
2023-02-16T01:03:20.814Z,46.40
2023-02-16T01:05:49.565Z,48.70
2023-02-16T01:08:36.623Z,48.20
2023-02-16T01:11:10.276Z,47.80
2023-02-16T01:13:47.946Z,49.10
2023-02-16T01:16:25.953Z,47.50
2023-02-16T01:18:54.895Z,50.40
2023-02-16T01:21:23.154Z,46.70
2023-02-16T01:23:52.175Z,49.40
2023-02-16T01:26:21.764Z,49.10
2023-02-16T01:28:50.278Z,49.30
2023-02-16T01:31:18.842Z,47.70
2023-02-16T01:33:47.201Z,47.20
2023-02-16T01:36:29.976Z,46.50
2023-02-16T01:38:58.297Z,48.80
2023-02-16T01:41:48.269Z,46.30
2023-02-16T01:44:22.808Z,45.90
2023-02-16T01:46:57.263Z,46.70
2023-02-16T01:49:25.951Z,43.60
2023-02-16T01:52:02.422Z,46.10
2023-02-16T01:54:57.842Z,45.20
2023-02-16T01:57:37.784Z,48.10
2023-02-16T02:00:29.679Z,45.50
2023-02-16T02:03:21.643Z,46.20
2023-02-16T02:05:52.182Z,61.20
2023-02-16T02:08:37.303Z,58.00
2023-02-16T02:11:24.376Z,43.90
2023-02-16T02:14:04.202Z,45.70
2023-02-16T02:16:32.919Z,46.60
2023-02-16T02:19:01.900Z,49.40
2023-02-16T02:22:09.151Z,51.90
2023-02-16T02:24:52.797Z,56.10
2023-02-16T02:27:23.414Z,57.20
2023-02-16T02:29:58.738Z,53.30
2023-02-16T02:36:33.846Z,48.60
2023-02-16T02:39:22.132Z,50.50
2023-02-16T02:42:07.181Z,51.60
2023-02-16T02:44:46.521Z,51.20
2023-02-16T02:47:15.288Z,48.40
2023-02-16T02:49:52.508Z,56.10
2023-02-16T02:52:22.939Z,51.50
2023-02-16T02:55:27.105Z,49.00
2023-02-16T02:58:14.519Z,45.40
2023-02-16T03:00:47.352Z,47.70
2023-02-16T03:03:19.112Z,46.00
2023-02-16T03:06:01.616Z,48.60
2023-02-16T03:08:34.615Z,49.10
2023-02-16T03:11:30.791Z,49.90
2023-02-16T03:14:07.463Z,46.60
2023-02-16T03:16:40.924Z,46.70
2023-02-16T03:19:31.970Z,45.00
2023-02-16T03:22:20.654Z,49.90
2023-02-16T03:25:07.974Z,47.00
2023-02-16T03:28:01.768Z,46.50
2023-02-16T03:30:30.902Z,48.90
2023-02-16T03:32:59.629Z,48.70
2023-02-16T03:35:29.192Z,48.10
2023-02-16T03:37:57.898Z,48.90
2023-02-16T03:40:28.731Z,41.50
2023-02-16T03:43:03.327Z,47.80
2023-02-16T03:45:35.301Z,48.20
2023-02-16T03:48:04.224Z,46.20
2023-02-16T03:50:33.188Z,45.30
2023-02-16T03:53:07.688Z,43.90
2023-02-16T03:55:47.678Z,43.30
2023-02-16T03:58:20.279Z,47.30
2023-02-16T04:05:21.755Z,41.50
2023-02-16T04:07:50.169Z,46.70
2023-02-16T04:10:19.228Z,47.10
2023-02-16T04:12:47.564Z,48.30
2023-02-16T04:15:22.742Z,42.30
2023-02-16T04:17:51.280Z,45.60
2023-02-16T04:20:23.447Z,44.80
2023-02-16T04:25:20.770Z,43.80
2023-02-16T04:27:49.613Z,47.60
2023-02-16T04:34:38.526Z,48.00
2023-02-16T04:37:06.672Z,48.20
2023-02-16T04:39:35.349Z,44.80
2023-02-16T04:42:04.151Z,45.20
2023-02-16T04:44:33.009Z,45.50
2023-02-16T04:47:01.075Z,47.20
2023-02-16T04:49:29.136Z,45.30
2023-02-16T04:51:57.500Z,49.90
2023-02-16T04:54:25.471Z,48.10
2023-02-16T04:56:53.640Z,48.70
2023-02-16T04:59:21.770Z,45.20
2023-02-16T05:01:50.019Z,46.90
2023-02-16T05:04:19.090Z,42.70
2023-02-16T05:06:47.058Z,44.50
2023-02-16T05:09:15.279Z,43.30
2023-02-16T05:12:02.228Z,43.70
2023-02-16T05:14:45.633Z,44.50
2023-02-16T05:17:19.639Z,41.40
2023-02-16T05:19:52.342Z,42.90
2023-02-16T05:22:21.086Z,43.80
2023-02-16T05:24:49.431Z,41.40
2023-02-16T05:27:23.093Z,41.60
2023-02-16T05:29:51.962Z,43.40
2023-02-16T05:32:20.723Z,43.00
2023-02-16T05:34:48.752Z,41.00
2023-02-16T05:37:18.725Z,39.90
2023-02-16T05:39:46.918Z,41.30
2023-02-16T05:42:14.874Z,40.70
2023-02-16T05:44:42.861Z,39.70
2023-02-16T05:47:11.425Z,40.70
2023-02-16T05:49:39.477Z,43.60
2023-02-16T05:52:07.514Z,46.70
2023-02-16T05:54:35.590Z,49.10
2023-02-16T05:57:04.330Z,47.70
2023-02-16T05:59:32.263Z,47.40
2023-02-16T06:02:00.911Z,48.00
2023-02-16T06:04:29.481Z,45.50
2023-02-16T06:06:57.464Z,44.40
2023-02-16T06:09:25.637Z,44.40
2023-02-16T06:11:54.700Z,45.90
2023-02-16T06:14:22.939Z,48.10
2023-02-16T06:16:54.431Z,45.40
2023-02-16T06:19:22.848Z,44.60
2023-02-16T06:21:51.220Z,47.30
2023-02-16T06:24:19.409Z,48.70
2023-02-16T06:26:47.517Z,49.60
2023-02-16T06:29:15.663Z,51.30
2023-02-16T06:31:43.875Z,50.50
2023-02-16T06:34:12.013Z,48.60
2023-02-16T06:36:42.388Z,45.40
2023-02-16T06:39:10.963Z,46.70
2023-02-16T06:41:40.524Z,48.40
2023-02-16T06:44:14.086Z,48.20
2023-02-16T06:46:44.422Z,47.60
2023-02-16T06:49:14.732Z,47.10
2023-02-16T06:51:43.036Z,47.20
2023-02-16T06:54:11.660Z,47.30
2023-02-16T06:56:40.108Z,51.30
2023-02-16T06:59:08.174Z,48.80
2023-02-16T07:01:36.192Z,48.60
2023-02-16T07:04:04.304Z,50.40
2023-02-16T07:06:32.605Z,50.30
2023-02-16T07:09:01.033Z,47.80
2023-02-16T07:11:29.318Z,48.60
2023-02-16T07:13:57.830Z,48.30
2023-02-16T07:16:26.030Z,48.50
2023-02-16T07:18:54.031Z,46.60
2023-02-16T07:21:22.082Z,48.10
2023-02-16T07:23:50.065Z,46.20
2023-02-16T07:26:19.323Z,46.10
2023-02-16T07:28:47.538Z,44.50
2023-02-16T07:31:17.526Z,46.20
2023-02-16T07:33:45.635Z,45.20
2023-02-16T07:36:14.332Z,43.20
2023-02-16T07:38:42.370Z,43.40
2023-02-16T07:41:11.900Z,43.70
2023-02-16T07:43:42.826Z,43.90
2023-02-16T07:46:11.023Z,42.10
2023-02-16T07:48:39.153Z,42.70
2023-02-16T07:51:07.868Z,41.90
2023-02-16T07:53:35.983Z,41.00
2023-02-16T07:56:04.275Z,39.60
2023-02-16T07:58:32.383Z,40.50
2023-02-16T08:01:08.187Z,39.80
2023-02-16T08:03:36.358Z,43.20
2023-02-16T08:06:05.040Z,42.10
2023-02-16T08:08:33.642Z,41.20
2023-02-16T08:11:11.802Z,40.30
2023-02-16T08:13:40.592Z,39.30
2023-02-16T08:16:10.804Z,40.00
2023-02-16T08:18:40.715Z,38.70
2023-02-16T08:21:14.510Z,39.30
2023-02-16T08:23:47.580Z,38.00
2023-02-16T08:26:19.606Z,40.10
2023-02-16T08:28:50.223Z,39.40
2023-02-16T08:31:25.101Z,35.60
2023-02-16T08:33:54.292Z,36.80
2023-02-16T08:36:29.667Z,37.00
2023-02-16T08:38:58.100Z,38.60
2023-02-16T08:41:30.869Z,38.50
2023-02-16T08:44:01.329Z,37.70
2023-02-16T08:46:32.518Z,37.70
2023-02-16T08:49:02.244Z,37.90
2023-02-16T08:51:34.753Z,36.60
2023-02-16T08:54:06.045Z,35.80
2023-02-16T08:56:34.629Z,36.90
2023-02-16T08:59:02.850Z,36.80
2023-02-16T09:01:30.930Z,38.40
2023-02-16T09:03:59.112Z,38.60
2023-02-16T09:06:27.665Z,38.60
2023-02-16T09:08:57.325Z,39.30
2023-02-16T09:11:25.819Z,37.10
2023-02-16T09:13:55.059Z,38.00
2023-02-16T09:16:24.547Z,36.60
2023-02-16T09:18:53.226Z,38.40
2023-02-16T09:21:25.704Z,36.80
2023-02-16T09:23:56.501Z,38.40
2023-02-16T09:26:26.885Z,37.50
2023-02-16T09:28:55.310Z,36.20
2023-02-16T09:31:27.769Z,37.10
2023-02-16T09:34:28.464Z,36.50
2023-02-16T09:36:56.587Z,36.00
2023-02-16T09:39:24.561Z,35.20
2023-02-16T09:42:15.869Z,34.60
2023-02-16T09:44:55.952Z,35.80
2023-02-16T09:47:31.205Z,35.00
2023-02-16T09:50:02.265Z,36.00
2023-02-16T09:52:37.718Z,37.90
2023-02-16T09:55:14.580Z,35.40
2023-02-16T09:58:01.325Z,35.30
2023-02-16T10:00:33.017Z,36.00
2023-02-16T10:03:40.024Z,36.00
2023-02-16T10:06:17.494Z,36.10
2023-02-16T10:08:51.482Z,36.90
2023-02-16T10:11:46.067Z,35.20
2023-02-16T10:14:50.594Z,34.40
2023-02-16T10:17:31.613Z,34.10
2023-02-16T10:20:19.864Z,36.70
2023-02-16T10:23:12.358Z,36.30
2023-02-16T10:28:17.640Z,35.70
2023-02-16T10:31:00.932Z,36.20
2023-02-16T10:33:53.668Z,36.30
2023-02-16T10:36:27.647Z,37.40
2023-02-16T10:39:05.068Z,33.90
2023-02-16T10:41:45.841Z,35.60
2023-02-16T10:44:21.807Z,34.80
2023-02-16T10:46:59.948Z,36.50
2023-02-16T10:49:31.354Z,33.80
2023-02-16T10:52:03.501Z,33.60
2023-02-16T10:54:33.224Z,33.90
2023-02-16T10:57:06.100Z,33.90
2023-02-16T10:59:38.984Z,34.70
2023-02-16T11:04:41.505Z,31.90
2023-02-16T11:07:14.309Z,33.10
2023-02-16T11:09:44.055Z,33.00
2023-02-16T11:12:22.957Z,32.00
2023-02-16T11:14:54.136Z,32.20
2023-02-16T11:17:23.989Z,33.10
2023-02-16T11:19:56.551Z,31.90
2023-02-16T11:22:31.351Z,31.10
2023-02-16T11:25:17.911Z,35.70
2023-02-16T11:27:57.283Z,33.40
2023-02-16T11:30:37.396Z,32.40
2023-02-16T11:33:23.972Z,31.70
2023-02-16T11:35:52.522Z,30.30
2023-02-16T11:38:31.822Z,30.50
2023-02-16T11:41:02.494Z,32.50
2023-02-16T11:43:35.278Z,32.60
2023-02-16T11:46:22.974Z,30.20
2023-02-16T11:48:51.266Z,31.10
2023-02-16T11:51:34.529Z,30.70
2023-02-16T11:54:07.749Z,30.70
2023-02-16T11:56:35.839Z,30.80
2023-02-16T11:59:17.132Z,31.20
2023-02-16T12:02:00.587Z,30.50
2023-02-16T12:04:46.684Z,31.50
2023-02-16T12:07:36.684Z,30.70
2023-02-16T12:10:30.978Z,31.60
2023-02-16T12:13:10.902Z,32.20
2023-02-16T12:16:00.020Z,30.40
2023-02-16T12:18:42.468Z,30.70
2023-02-16T12:24:18.377Z,27.60
2023-02-16T12:27:02.088Z,28.10
2023-02-16T12:29:53.844Z,27.70
2023-02-16T12:32:31.171Z,27.80
2023-02-16T12:35:36.648Z,26.50
2023-02-16T12:38:29.622Z,26.50
2023-02-16T12:41:16.141Z,23.20
2023-02-16T12:43:51.621Z,25.20
2023-02-16T12:46:24.049Z,26.70
2023-02-16T12:49:01.179Z,26.50
2023-02-16T12:51:36.301Z,27.40
2023-02-16T12:54:11.166Z,26.80
2023-02-16T12:56:45.843Z,27.40
2023-02-16T12:59:22.408Z,25.30
2023-02-16T13:01:54.962Z,25.00
2023-02-16T13:04:44.177Z,25.00
2023-02-16T13:07:23.392Z,25.40
2023-02-16T13:10:07.028Z,24.20
2023-02-16T13:12:58.137Z,26.80
2023-02-16T13:15:37.100Z,26.80
2023-02-16T13:18:20.327Z,27.00
2023-02-16T13:20:54.069Z,26.60
2023-02-16T13:23:27.703Z,27.50
2023-02-16T13:26:28.403Z,29.00
2023-02-16T13:29:23.185Z,28.50
2023-02-16T13:32:06.260Z,28.30
2023-02-16T13:34:38.334Z,29.70
2023-02-16T13:37:51.928Z,29.50
2023-02-16T13:40:36.716Z,30.30
2023-02-16T13:43:16.862Z,28.60
2023-02-16T13:45:47.567Z,29.50
2023-02-16T13:48:23.748Z,30.60
2023-02-16T13:51:15.475Z,30.20
2023-02-16T13:53:52.785Z,29.50
2023-02-16T13:56:29.722Z,29.50
2023-02-16T13:59:21.155Z,31.00
2023-02-16T14:01:50.966Z,31.70
2023-02-16T14:04:22.224Z,31.60
2023-02-16T14:07:13.399Z,30.70
2023-02-16T14:09:41.380Z,30.40
2023-02-16T14:12:09.468Z,32.20
2023-02-16T14:14:43.144Z,31.90
2023-02-16T14:17:25.111Z,31.20
2023-02-16T14:20:05.295Z,32.70
2023-02-16T14:22:57.477Z,31.70
2023-02-16T14:25:32.232Z,30.80
2023-02-16T14:28:21.548Z,30.70
2023-02-16T14:30:56.952Z,30.20
2023-02-16T14:33:43.700Z,30.00
2023-02-16T14:36:17.206Z,30.40
2023-02-16T14:38:49.950Z,27.20
2023-02-16T14:41:24.142Z,25.00
2023-02-16T14:44:25.854Z,26.40
2023-02-16T14:46:59.515Z,27.20
2023-02-16T14:49:51.901Z,27.40
2023-02-16T14:52:27.052Z,28.00
2023-02-16T14:55:40.189Z,27.90
2023-02-16T14:58:27.774Z,26.40
2023-02-16T15:01:16.412Z,25.40
2023-02-16T15:03:54.881Z,29.40
2023-02-16T15:06:31.601Z,28.50
2023-02-16T15:09:13.485Z,27.30
2023-02-16T15:12:08.989Z,29.10
2023-02-16T15:14:43.111Z,28.80
2023-02-16T15:17:36.497Z,29.60
2023-02-16T15:20:19.937Z,30.40
2023-02-16T15:22:54.406Z,31.30
2023-02-16T15:25:39.747Z,30.90
2023-02-16T15:28:10.821Z,33.00
2023-02-16T15:30:59.114Z,30.30
2023-02-16T15:33:33.701Z,31.40
2023-02-16T15:36:08.958Z,31.30
2023-02-16T15:38:39.746Z,32.60
2023-02-16T15:41:13.274Z,31.80
2023-02-16T15:43:50.357Z,32.80
2023-02-16T15:46:29.084Z,32.50
2023-02-16T15:48:57.441Z,32.50
2023-02-16T15:51:34.934Z,32.90
2023-02-16T15:54:07.478Z,34.10
2023-02-16T15:56:50.481Z,33.40
2023-02-16T15:59:35.376Z,32.40
2023-02-16T16:02:07.034Z,32.10
2023-02-16T16:04:38.909Z,33.70
2023-02-16T16:07:12.125Z,31.50
2023-02-16T16:09:42.186Z,33.60
2023-02-16T16:12:13.789Z,31.50
2023-02-16T16:14:56.994Z,22.90
2023-02-16T16:17:28.224Z,30.20
2023-02-16T16:19:58.288Z,30.50
2023-02-16T16:22:35.084Z,28.20
2023-02-16T16:25:42.222Z,27.30
2023-02-16T16:28:28.516Z,25.60
2023-02-16T16:31:31.256Z,29.00
2023-02-16T16:34:08.889Z,26.30
2023-02-16T16:36:47.038Z,29.40
2023-02-16T16:39:17.851Z,29.90
2023-02-16T16:42:06.586Z,27.90
2023-02-16T16:44:37.721Z,34.20
2023-02-16T16:47:26.734Z,33.90
2023-02-16T16:49:58.995Z,33.40
2023-02-16T16:52:45.057Z,32.10
2023-02-16T16:55:27.064Z,25.70
2023-02-16T16:58:01.336Z,27.00
2023-02-16T17:00:34.479Z,31.70
2023-02-16T17:03:04.889Z,29.00
2023-02-16T17:05:34.575Z,26.50
2023-02-16T17:08:04.180Z,24.60
2023-02-16T17:10:32.625Z,31.40
2023-02-16T17:13:01.024Z,30.90
2023-02-16T17:15:43.306Z,28.90
2023-02-16T17:20:50.466Z,29.30
2023-02-16T17:23:20.316Z,30.50
2023-02-16T17:25:52.097Z,31.20
2023-02-16T17:28:21.306Z,30.70
2023-02-16T17:30:49.319Z,33.20
2023-02-16T17:33:17.238Z,30.90
2023-02-16T17:35:45.285Z,33.00
2023-02-16T17:38:18.906Z,33.10
2023-02-16T17:40:49.289Z,35.20
2023-02-16T17:43:18.815Z,36.20
2023-02-16T17:45:47.441Z,36.70
2023-02-16T17:48:30.305Z,38.10
2023-02-16T17:50:58.394Z,38.10
2023-02-16T17:53:27.558Z,38.30
2023-02-16T17:55:57.869Z,38.30
2023-02-16T17:58:26.172Z,36.80
2023-02-16T18:00:54.366Z,35.40
2023-02-16T18:03:23.161Z,36.20
2023-02-16T18:05:51.699Z,35.60
2023-02-16T18:08:20.189Z,34.90
2023-02-16T18:10:51.553Z,34.40
2023-02-16T18:13:20.467Z,36.20
2023-02-16T18:15:49.809Z,36.00
2023-02-16T18:18:19.107Z,34.20
2023-02-16T18:20:47.524Z,36.80
2023-02-16T18:23:15.989Z,35.10
2023-02-16T18:25:44.318Z,36.50
2023-02-16T18:28:20.083Z,37.10
2023-02-16T18:30:49.386Z,36.40
2023-02-16T18:33:22.200Z,33.70
2023-02-16T18:35:57.589Z,34.40
2023-02-16T18:38:25.836Z,36.60
2023-02-16T18:40:54.955Z,35.30
2023-02-16T18:43:23.881Z,35.20
2023-02-16T18:45:52.107Z,37.50
2023-02-16T18:48:21.890Z,36.20
2023-02-16T18:50:49.986Z,38.20
2023-02-16T18:53:17.967Z,38.40
2023-02-16T18:55:46.137Z,36.30
2023-02-16T18:58:15.043Z,39.90
2023-02-16T19:04:36.634Z,40.50
2023-02-16T19:07:04.991Z,39.70
2023-02-16T19:09:33.276Z,38.70
2023-02-16T19:12:01.260Z,40.60
2023-02-16T19:14:29.291Z,41.20
2023-02-16T19:16:57.418Z,39.20
2023-02-16T19:19:25.521Z,40.00
2023-02-16T19:21:54.355Z,40.90
2023-02-16T19:24:22.883Z,41.20
2023-02-16T19:26:50.968Z,40.80
2023-02-16T19:29:18.921Z,39.30
2023-02-16T19:31:47.973Z,40.60
2023-02-16T19:34:17.069Z,41.50
2023-02-16T19:36:45.428Z,40.50
2023-02-16T19:39:13.724Z,41.10
2023-02-16T19:41:46.271Z,41.30
2023-02-16T19:44:14.880Z,38.40
2023-02-16T19:46:43.332Z,41.50
2023-02-16T19:49:14.487Z,41.10
2023-02-16T19:51:42.946Z,41.30
2023-02-16T19:54:11.020Z,38.50
2023-02-16T19:56:40.608Z,39.50
2023-02-16T19:59:08.992Z,41.10
2023-02-16T20:01:37.004Z,39.30
2023-02-16T20:04:05.462Z,43.00
2023-02-16T20:06:40.470Z,42.30
2023-02-16T20:09:12.435Z,40.70
2023-02-16T20:11:41.388Z,43.00
2023-02-16T20:14:11.342Z,42.80
2023-02-16T20:16:40.719Z,42.30
2023-02-16T20:19:08.851Z,41.00
2023-02-16T20:21:37.069Z,42.70
2023-02-16T20:24:06.917Z,42.10
2023-02-16T20:26:41.368Z,42.70
2023-02-16T20:29:11.586Z,44.30
2023-02-16T20:31:43.687Z,44.30
2023-02-16T20:34:11.840Z,45.40
2023-02-16T20:36:39.933Z,43.60
2023-02-16T20:39:08.452Z,43.30
2023-02-16T20:41:37.100Z,45.20
2023-02-16T20:44:07.339Z,45.20
2023-02-16T20:46:35.713Z,45.70
2023-02-16T20:49:04.852Z,44.10
2023-02-16T20:51:33.144Z,46.90
2023-02-16T20:54:03.874Z,43.80
2023-02-16T20:56:32.249Z,45.90
2023-02-16T20:59:01.495Z,43.00
2023-02-16T21:01:33.744Z,44.80
2023-02-16T21:04:01.799Z,44.20
2023-02-16T21:06:30.274Z,45.70
2023-02-16T21:08:58.457Z,41.00
2023-02-16T21:11:27.297Z,45.10
2023-02-16T21:13:58.002Z,43.80
2023-02-16T21:16:26.308Z,43.60
2023-02-16T21:18:54.669Z,44.30
2023-02-16T21:21:23.548Z,43.50
2023-02-16T21:23:54.034Z,43.00
2023-02-16T21:26:24.826Z,43.40
2023-02-16T21:28:53.432Z,43.80
2023-02-16T21:31:24.380Z,42.50
2023-02-16T21:33:54.439Z,42.60
2023-02-16T21:36:25.041Z,41.10
2023-02-16T21:38:53.869Z,43.60
2023-02-16T21:41:24.679Z,44.00
2023-02-16T21:43:55.931Z,44.30
2023-02-16T21:46:25.409Z,46.30
2023-02-16T21:48:55.251Z,46.20
2023-02-16T21:51:29.676Z,44.80
2023-02-16T21:53:58.819Z,44.80
2023-02-16T21:56:50.386Z,44.00
2023-02-16T21:59:19.970Z,33.00
2023-02-16T22:01:54.367Z,48.30
2023-02-16T22:04:23.052Z,45.60
2023-02-16T22:06:51.785Z,45.80
2023-02-16T22:09:22.634Z,45.70
2023-02-16T22:11:51.529Z,42.60
2023-02-16T22:14:20.206Z,46.50
2023-02-16T22:16:48.828Z,46.70
2023-02-16T22:19:18.507Z,45.40
2023-02-16T22:21:48.046Z,44.10
2023-02-16T22:24:18.540Z,42.80
2023-02-16T22:26:48.537Z,45.60
2023-02-16T22:29:17.217Z,44.50
2023-02-16T22:31:47.591Z,43.30
2023-02-16T22:34:19.654Z,44.80
2023-02-16T22:39:17.342Z,39.60
2023-02-16T22:41:45.375Z,43.30
2023-02-16T22:44:15.061Z,43.00
2023-02-16T22:46:43.516Z,41.00
2023-02-16T22:49:11.713Z,44.30
2023-02-16T22:51:40.261Z,45.10
2023-02-16T22:54:08.654Z,43.50
2023-02-16T22:56:36.652Z,44.50
2023-02-16T22:59:04.671Z,41.70
2023-02-16T23:01:33.062Z,43.00
2023-02-16T23:04:01.920Z,43.80
2023-02-16T23:06:34.240Z,42.20
2023-02-16T23:09:06.046Z,43.20
2023-02-16T23:11:35.184Z,41.70
2023-02-16T23:14:05.196Z,40.50
2023-02-16T23:16:33.355Z,40.20
2023-02-16T23:19:01.321Z,40.40
2023-02-16T23:21:33.156Z,43.70
2023-02-16T23:24:01.262Z,41.10
2023-02-16T23:26:31.123Z,41.60
2023-02-16T23:29:02.207Z,41.70
2023-02-16T23:31:38.814Z,40.30
2023-02-16T23:34:07.569Z,38.30
2023-02-16T23:36:37.329Z,42.70
2023-02-16T23:39:15.236Z,40.50
2023-02-16T23:41:43.549Z,41.50
2023-02-16T23:44:13.790Z,39.10
2023-02-16T23:46:41.921Z,40.30
2023-02-16T23:49:10.197Z,42.30
2023-02-16T23:51:38.224Z,38.80
2023-02-16T23:54:06.669Z,39.10
2023-02-16T23:56:35.448Z,40.90
2023-02-16T23:59:03.513Z,42.40
